Time;durP1;ratioP1;P1;durP2;ratioP2;P2;SDS_P1;SDS_P2;PMS_P1;PMS_P2;Temp;Humidity;BMP_temperature;BMP_pressure;BME280_temperature;BME280_humidity;BME280_pressure;Samples;Min_cycle;Max_cycle;Signal;HPM_P1;HPM_P2
2021/12/05 00:22:36;;;;;;;9.60;2.00;;;6.40;99.90;;;;;;4992144;28;20652;-89
2021/12/05 00:25:05;;;;;;;9.13;2.40;;;6.40;99.90;;;;;;4978079;28;20208;-84
2021/12/05 00:27:37;;;;;;;8.50;1.93;;;6.40;99.90;;;;;;4973899;28;20224;-84
2021/12/05 00:30:26;;;;;;;10.67;2.67;;;6.30;99.90;;;;;;4980269;28;20589;-86
2021/12/05 00:33:06;;;;;;;9.53;2.10;;;6.30;99.90;;;;;;4994387;28;20196;-88
2021/12/05 00:41:59;;;;;;;5.37;1.97;;;6.20;99.90;;;;;;5026020;28;20213;-89
2021/12/05 00:47:32;;;;;;;11.87;3.17;;;6.30;99.90;;;;;;5087611;28;20592;-85
2021/12/05 00:50:19;;;;;;;15.23;3.43;;;6.20;99.90;;;;;;5070857;28;20205;-80
2021/12/05 00:53:16;;;;;;;11.97;3.77;;;6.20;99.90;;;;;;5064145;28;20859;-81
2021/12/05 00:55:58;;;;;;;6.03;2.03;;;6.20;99.90;;;;;;5064555;28;20239;-82
2021/12/05 01:01:59;;;;;;;9.73;2.37;;;6.00;99.90;;;;;;5064442;28;20203;-82
2021/12/05 01:04:41;;;;;;;6.33;2.43;;;5.90;99.90;;;;;;5064887;28;20225;-82
2021/12/05 01:07:30;;;;;;;7.23;1.70;;;5.90;99.90;;;;;;5064800;28;20205;-84
2021/12/05 01:10:10;;;;;;;11.10;2.43;;;5.90;99.90;;;;;;5065370;28;20258;-81
2021/12/05 01:12:45;;;;;;;5.93;2.63;;;5.90;99.90;;;;;;5065039;28;20205;-85
2021/12/05 01:15:16;;;;;;;7.70;2.60;;;5.90;99.90;;;;;;5065620;28;20240;-84
2021/12/05 01:17:55;;;;;;;9.90;2.80;;;5.90;99.90;;;;;;5065700;28;20652;-83
2021/12/05 01:20:23;;;;;;;12.20;2.50;;;5.90;99.90;;;;;;5065038;28;20235;-86
2021/12/05 01:22:55;;;;;;;7.57;2.40;;;5.90;99.90;;;;;;5065983;28;20223;-81
2021/12/05 01:25:34;;;;;;;6.10;2.20;;;5.90;99.90;;;;;;5066915;28;20271;-87
2021/12/05 01:28:08;;;;;;;3.10;1.73;;;5.80;99.90;;;;;;5086595;28;20196;-85
2021/12/05 01:30:44;;;;;;;4.50;1.83;;;5.70;99.90;;;;;;5086808;28;20196;-86
2021/12/05 01:33:17;;;;;;;5.83;2.27;;;5.70;99.90;;;;;;5085145;22;20237;-89
2021/12/05 01:35:59;;;;;;;5.13;2.10;;;5.70;99.90;;;;;;5045470;28;20206;-88
2021/12/05 01:38:41;;;;;;;5.57;2.60;;;5.60;99.90;;;;;;5046921;28;20302;-86
2021/12/05 01:41:39;;;;;;;5.93;2.70;;;5.60;99.90;;;;;;5037911;28;20260;-88
2021/12/05 01:52:44;;;;;;;4.20;2.27;;;5.50;99.90;;;;;;4922307;28;20205;-87
2021/12/05 01:58:27;;;;;;;5.60;2.40;;;5.50;99.90;;;;;;5007044;28;20234;-91
2021/12/05 02:15:27;;;;;;;6.97;3.43;;;5.30;99.90;;;;;;4970481;28;20200;-86
2021/12/05 02:32:14;;;;;;;10.13;4.43;;;5.40;99.90;;;;;;5029823;28;20225;-82
2021/12/05 02:34:50;;;;;;;10.83;4.50;;;5.30;99.90;;;;;;5029247;28;20238;-84
2021/12/05 02:37:35;;;;;;;10.53;6.10;;;5.30;99.90;;;;;;5029515;28;20783;-82
2021/12/05 02:40:21;;;;;;;8.90;5.00;;;5.30;99.90;;;;;;5030077;28;20226;-82
2021/12/05 02:42:54;;;;;;;11.67;5.73;;;5.40;99.90;;;;;;5013969;28;20210;-83
2021/12/05 02:45:22;;;;;;;15.57;6.27;;;5.40;99.90;;;;;;5045136;28;20268;-83
2021/12/05 02:47:51;;;;;;;13.23;5.63;;;5.30;99.90;;;;;;5050248;28;20210;-84
2021/12/05 02:50:20;;;;;;;11.33;6.17;;;5.30;99.90;;;;;;5050351;28;20201;-83
2021/12/05 02:52:49;;;;;;;11.77;7.40;;;5.30;99.90;;;;;;5044441;28;20202;-91
2021/12/05 02:55:25;;;;;;;15.53;7.17;;;5.30;99.90;;;;;;5031386;28;20202;-81
2021/12/05 02:57:56;;;;;;;14.27;7.60;;;5.30;99.90;;;;;;5031932;28;20308;-86
2021/12/05 03:00:35;;;;;;;22.67;10.27;;;5.30;99.90;;;;;;5044653;28;20287;-88
2021/12/05 03:03:03;;;;;;;20.37;10.23;;;5.30;99.90;;;;;;5051903;28;20288;-84
2021/12/05 03:05:30;;;;;;;21.17;9.80;;;5.40;99.90;;;;;;5036808;28;20269;-88
2021/12/05 03:08:01;;;;;;;18.43;10.50;;;5.30;99.90;;;;;;5032752;28;20234;-91
2021/12/05 03:10:30;;;;;;;16.50;10.13;;;5.30;99.90;;;;;;5032406;28;20210;-87
2021/12/05 03:12:57;;;;;;;17.27;10.60;;;5.30;99.90;;;;;;5032160;28;20207;-87
2021/12/05 03:15:23;;;;;;;16.40;10.63;;;5.30;99.90;;;;;;5031859;28;20658;-85
2021/12/05 03:17:50;;;;;;;18.23;10.20;;;5.30;99.90;;;;;;5031516;28;20249;-88
2021/12/05 03:20:18;;;;;;;13.23;9.77;;;5.30;99.90;;;;;;5031263;28;20214;-89
2021/12/05 03:22:45;;;;;;;15.70;9.57;;;5.20;99.90;;;;;;5032260;28;20218;-84
2021/12/05 03:25:15;;;;;;;14.43;8.07;;;5.20;99.90;;;;;;5031664;28;20572;-87
2021/12/05 03:27:42;;;;;;;16.37;8.70;;;5.20;99.90;;;;;;5031070;28;20201;-85
2021/12/05 03:30:12;;;;;;;20.17;7.93;;;5.10;99.90;;;;;;5031784;28;20213;-84
2021/12/05 03:32:41;;;;;;;11.03;7.77;;;5.10;99.90;;;;;;5030888;28;20254;-84
2021/12/05 03:35:10;;;;;;;12.40;8.30;;;5.10;99.90;;;;;;5032418;28;20203;-86
2021/12/05 03:37:37;;;;;;;12.67;8.40;;;5.00;99.90;;;;;;5031709;28;20939;-84
2021/12/05 03:40:06;;;;;;;17.83;8.87;;;5.10;99.90;;;;;;5031906;28;20199;-86
2021/12/05 03:42:36;;;;;;;15.00;7.60;;;5.10;99.90;;;;;;5033643;28;20206;-83
2021/12/05 03:45:06;;;;;;;17.63;8.37;;;5.10;99.90;;;;;;5042415;28;20206;-84
2021/12/05 03:47:33;;;;;;;12.23;8.20;;;5.10;99.90;;;;;;5048926;28;20201;-84
2021/12/05 03:50:00;;;;;;;15.93;8.73;;;5.10;99.90;;;;;;5029799;28;20213;-81
2021/12/05 03:52:27;;;;;;;12.77;8.33;;;5.10;99.90;;;;;;5027711;28;20191;-81
2021/12/05 03:54:54;;;;;;;13.43;7.90;;;5.10;99.90;;;;;;5037614;28;20590;-81
2021/12/05 03:57:20;;;;;;;14.93;7.27;;;5.10;99.90;;;;;;5047451;28;20222;-80
2021/12/05 03:59:49;;;;;;;12.53;7.60;;;5.20;99.90;;;;;;5048383;28;20503;-82
2021/12/05 04:02:15;;;;;;;9.00;6.63;;;5.20;99.90;;;;;;5029927;28;20214;-82
2021/12/05 04:04:43;;;;;;;12.40;8.33;;;5.10;99.90;;;;;;5027809;28;20230;-83
2021/12/05 04:07:12;;;;;;;11.50;7.33;;;5.10;99.90;;;;;;5045547;28;20213;-81
2021/12/05 04:09:39;;;;;;;8.97;6.83;;;5.10;99.90;;;;;;5049970;28;20289;-85
2021/12/05 04:12:07;;;;;;;11.37;7.87;;;5.10;99.90;;;;;;5034871;28;20574;-81
2021/12/05 04:14:36;;;;;;;11.53;7.50;;;5.00;99.90;;;;;;5028989;28;20617;-85
2021/12/05 04:17:06;;;;;;;14.87;6.53;;;5.00;99.90;;;;;;5031579;28;20206;-88
2021/12/05 04:19:34;;;;;;;10.10;7.27;;;5.00;99.90;;;;;;5030617;28;20206;-89
2021/12/05 04:22:01;;;;;;;13.37;7.03;;;4.90;99.90;;;;;;5030275;28;20213;-89
2021/12/05 04:24:28;;;;;;;14.80;7.97;;;4.90;99.90;;;;;;5030625;28;20203;-89
2021/12/05 04:26:55;;;;;;;10.03;7.37;;;4.90;99.90;;;;;;5030309;28;20198;-82
2021/12/05 04:29:22;;;;;;;13.10;7.20;;;4.90;99.90;;;;;;5030270;28;20210;-84
2021/12/05 04:31:49;;;;;;;10.67;7.30;;;4.80;99.90;;;;;;5041601;28;20210;-92
2021/12/05 04:34:18;;;;;;;10.13;7.20;;;4.80;99.90;;;;;;5050234;28;20344;-84
2021/12/05 04:36:46;;;;;;;9.03;6.73;;;4.80;99.90;;;;;;5050466;28;20509;-85
2021/12/05 04:39:13;;;;;;;10.17;6.77;;;4.70;99.90;;;;;;5031664;28;20234;-84
2021/12/05 04:41:41;;;;;;;9.67;6.73;;;4.70;99.90;;;;;;5030234;28;20496;-85
2021/12/05 04:44:09;;;;;;;9.57;6.53;;;4.70;99.90;;;;;;5035063;28;20198;-87
2021/12/05 04:46:36;;;;;;;11.87;6.90;;;4.60;99.90;;;;;;5034619;28;20211;-88
2021/12/05 04:49:06;;;;;;;9.10;6.80;;;4.60;99.90;;;;;;5030170;28;20264;-92
2021/12/05 04:51:36;;;;;;;12.13;6.67;;;4.60;99.90;;;;;;5030339;28;20215;-85
2021/12/05 04:54:04;;;;;;;12.03;7.10;;;4.60;99.90;;;;;;5031668;28;20294;-89
2021/12/05 04:56:31;;;;;;;11.67;8.17;;;4.60;99.90;;;;;;5030898;28;20198;-86
2021/12/05 04:58:59;;;;;;;9.67;6.93;;;4.60;99.90;;;;;;5031007;28;20226;-86
2021/12/05 05:01:29;;;;;;;10.00;7.07;;;4.60;99.90;;;;;;5031494;28;20210;-86
2021/12/05 05:03:55;;;;;;;7.53;6.13;;;4.60;99.90;;;;;;5031225;28;20227;-88
2021/12/05 05:06:24;;;;;;;7.67;6.17;;;4.60;99.90;;;;;;5037649;28;20208;-86
2021/12/05 05:08:55;;;;;;;8.50;6.00;;;4.60;99.90;;;;;;5041110;28;20206;-87
2021/12/05 05:11:24;;;;;;;6.93;5.53;;;4.60;99.90;;;;;;5042480;28;20666;-83
2021/12/05 05:13:51;;;;;;;6.97;5.30;;;4.60;99.90;;;;;;5038501;28;20300;-90
2021/12/05 05:16:20;;;;;;;6.83;4.73;;;4.50;99.90;;;;;;5034903;28;20203;-82
2021/12/05 05:18:50;;;;;;;6.97;3.93;;;4.50;99.90;;;;;;5029161;28;20257;-85
2021/12/05 05:21:30;;;;;;;6.27;3.80;;;4.50;99.90;;;;;;5025855;28;20210;-83
2021/12/05 05:24:18;;;;;;;4.67;3.63;;;4.50;99.90;;;;;;5029853;28;20234;-84
2021/12/05 05:30:03;;;;;;;4.77;3.30;;;4.50;99.90;;;;;;4999999;28;20202;-85
2021/12/05 05:41:13;;;;;;;5.23;2.87;;;4.30;99.90;;;;;;4981749;28;20197;-85
2021/12/05 05:44:01;;;;;;;3.30;2.43;;;4.30;99.90;;;;;;5053519;28;20806;-84
2021/12/05 05:46:39;;;;;;;5.93;3.40;;;4.30;99.90;;;;;;5052239;28;20205;-84
2021/12/05 05:49:14;;;;;;;5.70;3.40;;;4.30;99.90;;;;;;5052581;28;20205;-85
2021/12/05 05:51:41;;;;;;;4.57;2.90;;;4.30;99.90;;;;;;5053139;28;20544;-85
2021/12/05 05:54:08;;;;;;;6.80;3.47;;;4.30;99.90;;;;;;5053422;28;20891;-84
2021/12/05 05:56:39;;;;;;;5.03;3.17;;;4.40;99.90;;;;;;5052771;28;20206;-86
2021/12/05 05:59:13;;;;;;;4.07;3.20;;;4.40;99.90;;;;;;5053904;28;20239;-87
2021/12/05 06:02:03;;;;;;;4.60;3.47;;;4.40;99.90;;;;;;5037816;28;20210;-88
2021/12/05 06:04:30;;;;;;;6.73;4.67;;;4.50;99.90;;;;;;5033328;28;20226;-85
2021/12/05 06:06:57;;;;;;;5.27;3.93;;;4.50;99.90;;;;;;5033990;28;20211;-86
2021/12/05 06:09:23;;;;;;;8.67;5.13;;;4.50;99.90;;;;;;5032825;28;20238;-88
2021/12/05 06:11:52;;;;;;;5.90;4.87;;;4.50;99.90;;;;;;5033028;28;20207;-89
2021/12/05 06:14:19;;;;;;;5.50;4.30;;;4.50;99.90;;;;;;5032259;28;20587;-91
2021/12/05 06:16:46;;;;;;;5.13;4.53;;;4.50;99.90;;;;;;5033080;28;20587;-86
2021/12/05 06:19:13;;;;;;;7.00;4.80;;;4.50;99.90;;;;;;5033160;28;20230;-85
2021/12/05 06:21:40;;;;;;;5.27;4.43;;;4.50;99.90;;;;;;5032233;28;20199;-85
2021/12/05 06:24:07;;;;;;;5.23;4.40;;;4.50;99.90;;;;;;5033571;28;20214;-87
2021/12/05 06:26:35;;;;;;;5.87;4.87;;;4.50;99.90;;;;;;5031994;28;20602;-88
2021/12/05 06:29:08;;;;;;;5.80;5.20;;;4.50;99.90;;;;;;5032106;28;20226;-85
2021/12/05 06:31:52;;;;;;;8.40;5.77;;;4.50;99.90;;;;;;5032055;28;20206;-88
2021/12/05 06:37:28;;;;;;;5.87;5.27;;;4.40;99.90;;;;;;5032450;28;20340;-85
2021/12/05 06:42:50;;;;;;;8.00;5.10;;;4.40;99.90;;;;;;5031845;28;20178;-85
2021/12/05 06:48:03;;;;;;;9.13;5.83;;;4.30;99.90;;;;;;5032521;28;20205;-87
2021/12/05 06:50:30;;;;;;;8.10;6.37;;;4.30;99.90;;;;;;5042738;28;20204;-85
2021/12/05 06:52:59;;;;;;;8.73;6.30;;;4.30;99.90;;;;;;5051832;28;20208;-87
2021/12/05 06:55:25;;;;;;;8.00;6.10;;;4.30;99.90;;;;;;5049356;28;20194;-81
2021/12/05 06:57:52;;;;;;;7.93;6.63;;;4.30;99.90;;;;;;5033637;28;20210;-82
2021/12/05 07:00:23;;;;;;;8.87;7.63;;;4.30;99.90;;;;;;5030979;28;20214;-85
2021/12/05 07:02:50;;;;;;;9.73;6.70;;;4.30;99.90;;;;;;5031847;28;20255;-80
2021/12/05 07:08:02;;;;;;;10.77;7.70;;;4.30;99.90;;;;;;5030944;28;20249;-88
2021/12/05 07:10:32;;;;;;;11.73;8.47;;;4.30;99.90;;;;;;5031604;28;20195;-86
2021/12/05 07:13:35;;;;;;;11.73;8.57;;;4.30;99.90;;;;;;5032103;28;20236;-86
2021/12/05 07:16:10;;;;;;;13.40;8.97;;;4.30;99.90;;;;;;5031981;28;20300;-86
2021/12/05 07:18:47;;;;;;;10.70;8.27;;;4.40;99.90;;;;;;5032175;28;20630;-86
2021/12/05 07:21:33;;;;;;;11.17;7.63;;;4.40;99.90;;;;;;5032500;28;20214;-88
2021/12/05 07:24:08;;;;;;;11.97;8.63;;;4.40;99.90;;;;;;5032080;28;20213;-88
2021/12/05 07:26:50;;;;;;;12.90;8.60;;;4.40;99.90;;;;;;5031723;28;20289;-87
2021/12/05 07:40:29;;;;;;;15.30;9.10;;;4.40;99.90;;;;;;5052290;28;20247;-86
2021/12/05 07:42:57;;;;;;;11.73;8.83;;;4.50;99.90;;;;;;5051289;28;20275;-85
2021/12/05 07:45:32;;;;;;;15.07;9.27;;;4.50;99.90;;;;;;5051343;28;20205;-89
2021/12/05 07:48:09;;;;;;;15.00;10.53;;;4.50;99.90;;;;;;5051555;28;20209;-89
2021/12/05 07:50:43;;;;;;;15.03;9.53;;;4.50;99.90;;;;;;5051125;28;20217;-91
2021/12/05 07:53:18;;;;;;;13.00;9.73;;;4.50;99.90;;;;;;5051842;28;20284;-87
2021/12/05 07:55:48;;;;;;;16.07;10.70;;;4.50;99.90;;;;;;5051075;28;20205;-89
2021/12/05 07:58:29;;;;;;;20.13;10.47;;;4.50;99.90;;;;;;5050780;28;20233;-87
2021/12/05 08:15:28;;;;;;;20.13;13.33;;;4.60;99.90;;;;;;5029521;28;20512;-91
2021/12/05 08:17:58;;;;;;;20.70;13.17;;;4.50;99.90;;;;;;5027582;28;20186;-92
2021/12/05 08:20:28;;;;;;;18.40;12.63;;;4.50;99.90;;;;;;5040524;28;20476;-88
2021/12/05 08:22:56;;;;;;;19.50;13.23;;;4.50;99.90;;;;;;5029354;28;20226;-84
2021/12/05 08:25:27;;;;;;;24.03;14.47;;;4.50;99.90;;;;;;5027751;28;20194;-86
2021/12/05 08:28:01;;;;;;;22.07;14.17;;;4.50;99.90;;;;;;5028073;28;20661;-89
2021/12/05 08:30:32;;;;;;;20.30;12.70;;;4.50;99.90;;;;;;5029543;28;20206;-80
2021/12/05 08:33:26;;;;;;;21.97;12.73;;;4.50;99.90;;;;;;5027157;28;20842;-84
2021/12/05 08:36:37;;;;;;;19.43;12.80;;;4.50;99.90;;;;;;5028997;28;20260;-85
2021/12/05 08:39:51;;;;;;;22.27;13.17;;;4.50;99.90;;;;;;5029643;28;20303;-82
2021/12/05 08:42:54;;;;;;;24.17;13.67;;;4.60;99.90;;;;;;5028923;28;20252;-88
2021/12/05 08:45:56;;;;;;;21.93;12.70;;;4.60;99.90;;;;;;5043668;28;20566;-89
2021/12/05 09:22:03;;;;;;;15.67;10.70;;;5.30;99.90;;;;;;5033518;28;20285;-88
2021/12/05 09:24:43;;;;;;;16.53;11.07;;;5.30;99.90;;;;;;5031795;28;20213;-86
2021/12/05 09:30:25;;;;;;;14.37;10.33;;;5.40;99.90;;;;;;5031873;28;20243;-82
2021/12/05 09:39:10;;;;;;;16.47;11.53;;;5.60;99.90;;;;;;5039014;28;20204;-89
2021/12/05 10:06:49;;;;;;;17.47;12.43;;;5.90;99.90;;;;;;5049026;28;20244;-83
2021/12/05 10:09:37;;;;;;;17.40;12.20;;;5.90;99.90;;;;;;5050515;28;20224;-83
2021/12/05 10:12:26;;;;;;;17.63;11.60;;;5.90;99.90;;;;;;5052467;28;20268;-88
2021/12/05 10:15:29;;;;;;;17.20;12.20;;;6.00;99.90;;;;;;5069985;28;20205;-89
2021/12/05 10:18:55;;;;;;;18.60;12.93;;;6.10;99.90;;;;;;5073863;28;20208;-88
2021/12/05 10:35:37;;;;;;;15.20;11.83;;;6.20;99.90;;;;;;5058807;28;20208;-85
2021/12/05 10:38:08;;;;;;;15.30;11.47;;;6.30;99.90;;;;;;5054312;28;20209;-85
2021/12/05 10:40:42;;;;;;;17.37;12.63;;;6.30;99.90;;;;;;5064418;28;20221;-83
2021/12/05 10:43:15;;;;;;;17.70;12.57;;;6.30;99.90;;;;;;5070905;28;20193;-86
2021/12/05 10:45:45;;;;;;;16.83;11.77;;;6.40;99.90;;;;;;5071683;28;20209;-84
2021/12/05 10:48:23;;;;;;;13.17;11.23;;;6.50;99.90;;;;;;5072086;28;20540;-86
2021/12/05 10:50:53;;;;;;;14.67;11.83;;;6.50;99.90;;;;;;5071580;28;20208;-87
2021/12/05 10:53:28;;;;;;;16.70;13.00;;;6.60;99.90;;;;;;5071813;28;20200;-88
2021/12/05 10:55:59;;;;;;;16.67;13.47;;;6.70;99.90;;;;;;5071549;28;20239;-87
2021/12/05 10:58:33;;;;;;;15.20;12.70;;;6.70;99.90;;;;;;5071695;28;20213;-84
2021/12/05 11:01:07;;;;;;;15.97;13.63;;;6.70;99.90;;;;;;5071125;28;20569;-84
2021/12/05 11:03:36;;;;;;;18.20;14.17;;;6.70;99.90;;;;;;5069360;28;20205;-83
2021/12/05 11:06:17;;;;;;;16.67;14.17;;;6.80;99.90;;;;;;5069338;28;20209;-84
2021/12/05 11:08:43;;;;;;;16.33;13.30;;;6.80;99.90;;;;;;5068020;28;20222;-84
2021/12/05 11:11:11;;;;;;;15.93;13.73;;;6.70;99.90;;;;;;5068708;28;20258;-85
2021/12/05 11:13:39;;;;;;;17.00;13.93;;;6.70;99.90;;;;;;5067789;28;20206;-84
2021/12/05 11:16:27;;;;;;;17.50;14.23;;;6.70;99.90;;;;;;5068403;28;20209;-86
2021/12/05 11:18:55;;;;;;;14.20;12.60;;;6.70;99.90;;;;;;5068932;28;20197;-82
2021/12/05 11:21:30;;;;;;;16.10;13.97;;;6.70;99.90;;;;;;5053148;28;20201;-84
2021/12/05 11:24:10;;;;;;;17.97;13.67;;;6.70;99.90;;;;;;5073857;23;20235;-86
2021/12/05 11:26:40;;;;;;;14.37;12.20;;;6.60;99.90;;;;;;5078371;28;20219;-83
2021/12/05 11:29:08;;;;;;;14.00;12.50;;;6.60;99.90;;;;;;5069748;28;20200;-87
2021/12/05 11:31:35;;;;;;;18.23;13.40;;;6.70;99.90;;;;;;5068432;28;20208;-87
2021/12/05 11:34:04;;;;;;;17.93;13.77;;;6.70;99.90;;;;;;5069024;28;20202;-86
2021/12/05 11:36:34;;;;;;;14.47;12.97;;;6.70;99.90;;;;;;5067674;28;20213;-82
2021/12/05 11:39:19;;;;;;;14.20;12.70;;;6.70;99.90;;;;;;5072525;28;20575;-84
2021/12/05 11:41:46;;;;;;;16.77;12.43;;;6.70;99.90;;;;;;5088327;28;20204;-82
2021/12/05 11:44:18;;;;;;;17.73;13.47;;;6.70;99.90;;;;;;5090967;28;20193;-84
2021/12/05 11:46:46;;;;;;;16.23;13.10;;;6.70;99.90;;;;;;5085671;28;20225;-84
2021/12/05 11:49:20;;;;;;;13.63;11.53;;;6.80;99.90;;;;;;5070833;28;20197;-84
2021/12/05 11:51:51;;;;;;;13.17;11.67;;;6.80;99.90;;;;;;5071190;28;20557;-84
2021/12/05 11:54:21;;;;;;;16.60;12.80;;;6.80;99.90;;;;;;5071271;28;20193;-86
2021/12/05 11:56:51;;;;;;;17.13;14.17;;;6.80;99.90;;;;;;5071861;28;20561;-83
2021/12/05 11:59:22;;;;;;;14.43;12.17;;;6.80;99.90;;;;;;5070710;28;20224;-83
2021/12/05 12:01:53;;;;;;;13.77;11.80;;;6.70;99.90;;;;;;5069779;28;20204;-84
2021/12/05 12:04:26;;;;;;;13.13;11.83;;;6.70;99.90;;;;;;5086826;23;20251;-82
2021/12/05 12:07:11;;;;;;;15.67;12.13;;;6.70;99.90;;;;;;5088048;28;20210;-83
2021/12/05 12:09:39;;;;;;;16.13;12.07;;;6.80;99.90;;;;;;5075714;28;20197;-81
2021/12/05 12:12:06;;;;;;;15.50;13.23;;;6.80;99.90;;;;;;5068813;28;20205;-83
2021/12/05 12:14:34;;;;;;;16.13;11.80;;;6.80;99.90;;;;;;5068135;28;20610;-82
2021/12/05 12:17:03;;;;;;;15.63;12.80;;;6.80;99.90;;;;;;5068934;28;20204;-83
2021/12/05 12:19:32;;;;;;;14.77;11.70;;;6.80;99.90;;;;;;5068972;28;20613;-84
2021/12/05 12:22:03;;;;;;;13.60;12.17;;;6.80;99.90;;;;;;5069004;28;20190;-83
2021/12/05 12:24:31;;;;;;;19.40;14.50;;;6.90;99.90;;;;;;5067267;28;20282;-81
2021/12/05 12:26:58;;;;;;;16.37;13.67;;;6.90;99.90;;;;;;5067927;28;20202;-81
2021/12/05 12:29:26;;;;;;;14.60;12.10;;;6.90;99.90;;;;;;5069083;28;20213;-82
2021/12/05 12:31:59;;;;;;;15.57;12.27;;;6.90;99.90;;;;;;5069590;28;20193;-80
2021/12/05 12:34:26;;;;;;;13.30;11.43;;;6.90;99.90;;;;;;5068927;28;20362;-81
2021/12/05 12:37:00;;;;;;;13.80;10.80;;;6.90;99.90;;;;;;5069891;28;20205;-84
2021/12/05 12:39:32;;;;;;;13.10;11.50;;;6.90;99.90;;;;;;5070983;28;20213;-86
2021/12/05 12:42:05;;;;;;;15.57;12.37;;;6.90;99.90;;;;;;5070221;28;20491;-85
2021/12/05 12:44:33;;;;;;;14.33;11.57;;;6.90;99.90;;;;;;5077183;28;20254;-84
2021/12/05 12:47:02;;;;;;;15.23;12.00;;;7.00;99.90;;;;;;5090246;28;20207;-85
2021/12/05 12:49:32;;;;;;;13.80;11.80;;;6.90;99.90;;;;;;5089282;28;20480;-87
2021/12/05 12:52:03;;;;;;;14.20;11.87;;;6.90;99.90;;;;;;5090394;28;20188;-82
2021/12/05 12:54:33;;;;;;;14.30;11.87;;;6.90;99.90;;;;;;5090375;28;20203;-85
2021/12/05 12:57:03;;;;;;;17.40;13.60;;;6.90;99.90;;;;;;5090912;28;20208;-86
2021/12/05 12:59:34;;;;;;;16.77;14.27;;;6.80;99.90;;;;;;5090307;28;20231;-84
2021/12/05 13:02:27;;;;;;;16.67;14.47;;;6.80;99.90;;;;;;5087998;28;20356;-85
2021/12/05 13:10:30;;;;;;;19.73;15.47;;;6.70;99.90;;;;;;5066984;28;20204;-84
2021/12/05 13:13:04;;;;;;;15.93;13.57;;;6.70;99.90;;;;;;5067046;28;20544;-82
2021/12/05 13:15:38;;;;;;;19.33;14.50;;;6.70;99.90;;;;;;5078573;28;20196;-83
2021/12/05 13:18:28;;;;;;;19.40;14.20;;;6.70;99.90;;;;;;5088066;28;20619;-84
2021/12/05 13:21:11;;;;;;;18.43;14.83;;;6.70;99.90;;;;;;5081801;28;20505;-83
2021/12/05 13:23:43;;;;;;;18.07;14.07;;;6.70;99.90;;;;;;5069263;28;20212;-83
2021/12/05 13:26:15;;;;;;;16.40;13.33;;;6.70;99.90;;;;;;5069626;28;20201;-83
2021/12/05 13:28:45;;;;;;;20.70;14.90;;;6.70;99.90;;;;;;5069020;28;20311;-84
2021/12/05 13:31:34;;;;;;;19.77;15.93;;;6.70;99.90;;;;;;5069627;28;20194;-83
2021/12/05 13:34:30;;;;;;;21.40;16.30;;;6.70;99.90;;;;;;5068791;28;20282;-83
2021/12/05 13:37:00;;;;;;;18.77;14.83;;;6.80;99.90;;;;;;5074404;28;20201;-84
2021/12/05 13:39:41;;;;;;;19.37;15.70;;;6.70;99.90;;;;;;5084451;28;20212;-83
2021/12/05 13:42:11;;;;;;;22.47;16.93;;;6.70;99.90;;;;;;5069519;28;20201;-84
2021/12/05 13:45:11;;;;;;;21.00;16.40;;;6.70;99.90;;;;;;5078828;28;20209;-83
2021/12/05 13:47:44;;;;;;;23.13;17.13;;;6.70;99.90;;;;;;5093070;28;20240;-85
2021/12/05 13:50:32;;;;;;;21.03;16.57;;;6.70;99.90;;;;;;5078554;28;20212;-85
2021/12/05 13:53:17;;;;;;;19.93;16.63;;;6.60;99.90;;;;;;5073094;28;20205;-85
2021/12/05 13:55:46;;;;;;;20.87;16.10;;;6.60;99.90;;;;;;5073078;28;20492;-85
2021/12/05 13:58:23;;;;;;;21.10;15.90;;;6.60;99.90;;;;;;5073094;28;20205;-84
2021/12/05 14:00:55;;;;;;;21.40;15.70;;;6.60;99.90;;;;;;5072795;28;20217;-82
2021/12/05 14:03:51;;;;;;;23.33;17.07;;;6.60;99.90;;;;;;5071157;28;20528;-83
2021/12/05 14:06:53;;;;;;;21.07;16.97;;;6.60;99.90;;;;;;5071771;28;20582;-86
2021/12/05 14:09:33;;;;;;;23.13;16.57;;;6.60;99.90;;;;;;5090419;28;20211;-81
2021/12/05 14:12:08;;;;;;;21.40;16.40;;;6.60;99.90;;;;;;5078098;23;20314;-82
2021/12/05 14:14:38;;;;;;;23.43;16.63;;;6.50;99.90;;;;;;5063874;28;20213;-81
2021/12/05 14:17:09;;;;;;;22.67;17.30;;;6.60;99.90;;;;;;5050484;28;20221;-81
2021/12/05 14:19:39;;;;;;;20.17;16.33;;;6.50;99.90;;;;;;5050994;28;20285;-80
2021/12/05 14:22:09;;;;;;;23.83;18.23;;;6.50;99.90;;;;;;5052838;28;20202;-84
2021/12/05 14:24:38;;;;;;;19.33;16.07;;;6.60;99.90;;;;;;5052015;28;20198;-84
2021/12/05 14:27:10;;;;;;;21.27;17.00;;;6.60;99.90;;;;;;5077235;23;20882;-83
2021/12/05 14:29:40;;;;;;;24.20;17.43;;;6.50;99.90;;;;;;5091301;28;20181;-84
2021/12/05 14:32:09;;;;;;;22.60;17.60;;;6.50;99.90;;;;;;5077908;28;20854;-84
2021/12/05 14:34:37;;;;;;;21.20;17.00;;;6.50;99.90;;;;;;5070509;28;20197;-84
2021/12/05 14:37:06;;;;;;;26.83;17.73;;;6.60;99.90;;;;;;5069584;28;20197;-82
2021/12/05 14:39:35;;;;;;;21.30;16.43;;;6.50;99.90;;;;;;5068092;28;20291;-82
2021/12/05 14:42:05;;;;;;;23.47;16.57;;;6.40;99.90;;;;;;5086635;28;20622;-81
2021/12/05 14:44:34;;;;;;;20.67;14.73;;;6.50;99.90;;;;;;5088945;28;20493;-80
2021/12/05 14:47:05;;;;;;;20.37;15.40;;;6.40;99.90;;;;;;5074730;28;20220;-82
2021/12/05 14:49:34;;;;;;;19.67;15.63;;;6.50;99.90;;;;;;5068581;28;20197;-84
2021/12/05 14:52:02;;;;;;;17.73;13.80;;;6.50;99.90;;;;;;5069595;28;20201;-83
2021/12/05 14:54:33;;;;;;;19.10;14.67;;;6.40;99.90;;;;;;5068837;28;20873;-82
2021/12/05 14:57:05;;;;;;;19.13;13.97;;;6.40;99.90;;;;;;5068994;28;20209;-82
2021/12/05 14:59:34;;;;;;;17.67;13.53;;;6.30;99.90;;;;;;5069110;28;20239;-82
2021/12/05 15:02:01;;;;;;;18.87;14.50;;;6.30;99.90;;;;;;5068333;28;20868;-81
2021/12/05 15:04:32;;;;;;;22.07;14.67;;;6.30;99.90;;;;;;5068987;28;20303;-81
2021/12/05 15:06:59;;;;;;;16.60;13.10;;;6.30;99.90;;;;;;5069221;28;20193;-80
2021/12/05 15:09:32;;;;;;;19.17;13.17;;;6.20;99.90;;;;;;5068170;28;20205;-80
2021/12/05 15:12:03;;;;;;;18.30;13.23;;;6.20;99.90;;;;;;5069272;28;20190;-80
2021/12/05 15:14:31;;;;;;;21.27;13.40;;;6.20;99.90;;;;;;5088116;23;20259;-82
2021/12/05 15:17:08;;;;;;;18.43;14.17;;;6.20;99.90;;;;;;5077122;28;20206;-87
2021/12/05 15:19:39;;;;;;;20.87;14.17;;;6.20;99.90;;;;;;5068406;28;20211;-84
2021/12/05 15:22:06;;;;;;;19.00;13.60;;;6.20;99.90;;;;;;5069321;28;20229;-86
2021/12/05 15:24:34;;;;;;;18.40;13.03;;;6.20;99.90;;;;;;5068518;28;20200;-85
2021/12/05 15:27:04;;;;;;;18.63;14.63;;;6.10;99.90;;;;;;5069808;28;20228;-83
2021/12/05 15:29:31;;;;;;;18.93;13.47;;;6.10;99.90;;;;;;5069913;28;20209;-80
2021/12/05 15:31:59;;;;;;;20.00;13.70;;;6.10;99.90;;;;;;5069978;28;20201;-81
2021/12/05 15:34:33;;;;;;;20.80;14.80;;;6.10;99.90;;;;;;5070482;28;20205;-79
2021/12/05 15:37:08;;;;;;;20.13;13.60;;;6.10;99.90;;;;;;5069784;28;20197;-80
2021/12/05 15:39:35;;;;;;;20.23;14.00;;;6.10;99.90;;;;;;5069667;28;20204;-80
2021/12/05 15:42:12;;;;;;;19.93;13.97;;;6.10;99.90;;;;;;5070056;28;20217;-79
2021/12/05 15:44:40;;;;;;;18.43;13.33;;;6.00;99.90;;;;;;5081637;28;20211;-82
2021/12/05 15:47:11;;;;;;;18.17;13.83;;;6.10;99.90;;;;;;5091598;28;20200;-84
2021/12/05 15:49:48;;;;;;;17.13;12.77;;;6.10;99.90;;;;;;5090722;28;20209;-82
2021/12/05 15:52:15;;;;;;;19.53;13.10;;;6.00;99.90;;;;;;5069396;28;20220;-80
2021/12/05 15:54:44;;;;;;;19.30;14.10;;;5.90;99.90;;;;;;5068682;28;20217;-82
2021/12/05 15:57:14;;;;;;;20.63;13.80;;;5.90;99.90;;;;;;5068124;28;20202;-80
2021/12/05 15:59:45;;;;;;;20.30;15.07;;;5.90;99.90;;;;;;5067738;28;20291;-81
2021/12/05 16:02:13;;;;;;;20.03;13.27;;;5.90;99.90;;;;;;5068178;28;20593;-81
2021/12/05 16:04:41;;;;;;;18.17;13.33;;;5.90;99.90;;;;;;5067547;28;20236;-81
2021/12/05 16:07:10;;;;;;;17.90;12.77;;;5.90;99.90;;;;;;5066118;28;20205;-82
2021/12/05 16:09:38;;;;;;;18.40;13.03;;;5.90;99.90;;;;;;5066696;28;20259;-82
2021/12/05 16:12:09;;;;;;;16.93;13.00;;;5.90;99.90;;;;;;5066643;28;20205;-81
2021/12/05 16:14:38;;;;;;;19.23;13.77;;;5.90;99.90;;;;;;5066183;28;20664;-81
2021/12/05 16:17:15;;;;;;;18.37;13.40;;;5.80;99.90;;;;;;5066868;28;20201;-79
2021/12/05 16:20:11;;;;;;;18.27;12.93;;;5.90;99.90;;;;;;5085972;28;20714;-81
2021/12/05 16:23:14;;;;;;;21.23;14.13;;;5.90;99.90;;;;;;5086768;28;20197;-81
2021/12/05 16:25:48;;;;;;;21.47;14.17;;;5.90;99.90;;;;;;5066495;28;20185;-81
2021/12/05 16:28:16;;;;;;;23.43;14.80;;;5.90;99.90;;;;;;5066763;28;20201;-80
2021/12/05 16:30:47;;;;;;;19.77;13.53;;;5.80;99.90;;;;;;5081219;23;20236;-83
2021/12/05 16:33:16;;;;;;;18.37;12.93;;;5.80;99.90;;;;;;5088627;28;20962;-83
2021/12/05 16:35:46;;;;;;;19.07;12.27;;;5.80;99.90;;;;;;5079893;28;20205;-82
2021/12/05 16:38:26;;;;;;;15.30;11.30;;;5.80;99.90;;;;;;5069585;28;20211;-83
2021/12/05 16:41:03;;;;;;;19.33;13.07;;;5.80;99.90;;;;;;5068703;28;20228;-85
2021/12/05 16:43:32;;;;;;;17.80;11.73;;;5.70;99.90;;;;;;5068362;28;20660;-86
2021/12/05 16:46:06;;;;;;;16.27;11.03;;;5.70;99.90;;;;;;5088268;28;20214;-84